Time;durP1;ratioP1;P1;durP2;ratioP2;P2;SDS_P1;SDS_P2;PMS_P1;PMS_P2;Temp;Humidity;BMP_temperature;BMP_pressure;BME280_temperature;BME280_humidity;BME280_pressure;Samples;Min_cycle;Max_cycle;Signal;HPM_P1;HPM_P2
2022/11/19 00:01:26;;;;;;;16.52;11.32;;;7.20;99.90;;;6.49;100.00;96644.28;4974587;28;20050;-72
2022/11/19 00:03:53;;;;;;;14.20;9.02;;;7.20;99.90;;;6.54;100.00;96641.53;4963086;28;20058;-71
2022/11/19 00:06:24;;;;;;;18.48;9.13;;;7.30;99.90;;;6.53;100.00;96645.84;4971092;28;20046;-72
2022/11/19 00:08:52;;;;;;;16.25;9.43;;;7.30;99.90;;;6.73;100.00;96650.19;4983579;28;20062;-72
2022/11/19 00:14:13;;;;;;;16.10;8.18;;;7.40;99.90;;;6.72;100.00;96653.66;4985387;28;20051;-70
2022/11/19 00:16:42;;;;;;;15.27;8.93;;;7.50;99.90;;;6.76;100.00;96659.53;4985783;28;20050;-73
2022/11/19 00:19:10;;;;;;;16.95;8.95;;;7.50;99.90;;;6.65;100.00;96665.97;4970458;28;20050;-72
2022/11/19 00:21:37;;;;;;;11.07;6.82;;;7.60;99.90;;;6.66;100.00;96656.47;4986348;28;20069;-72
2022/11/19 00:24:05;;;;;;;15.13;7.10;;;7.60;99.90;;;6.70;100.00;96666.63;4978968;28;20153;-71
2022/11/19 00:26:32;;;;;;;10.32;5.78;;;7.70;99.90;;;6.71;100.00;96652.00;4985257;28;20065;-72
2022/11/19 00:28:59;;;;;;;10.68;7.03;;;7.60;99.90;;;6.77;100.00;96656.88;4985932;28;20042;-72
2022/11/19 00:31:26;;;;;;;14.43;7.47;;;7.60;99.90;;;6.88;100.00;96659.00;4984144;28;20057;-71
2022/11/19 00:33:53;;;;;;;8.68;4.63;;;7.60;99.90;;;6.81;100.00;96668.75;4983314;28;20050;-72
2022/11/19 00:36:21;;;;;;;11.85;5.03;;;7.60;99.90;;;6.68;100.00;96657.25;4983370;28;20038;-72
2022/11/19 00:38:48;;;;;;;8.85;5.32;;;7.60;99.90;;;6.82;100.00;96660.13;4967289;28;20854;-72
2022/11/19 00:41:15;;;;;;;9.45;5.93;;;7.60;99.90;;;6.86;100.00;96658.22;4988196;28;20050;-72
2022/11/19 00:43:48;;;;;;;14.25;7.15;;;7.60;99.90;;;6.79;100.00;96667.13;4984365;28;20050;-73
2022/11/19 00:46:25;;;;;;;10.82;5.95;;;7.70;99.90;;;6.78;100.00;96663.72;4984350;28;20050;-72
2022/11/19 00:48:55;;;;;;;10.90;6.68;;;7.70;99.90;;;6.70;100.00;96658.91;4969246;28;20137;-72
2022/11/19 00:51:25;;;;;;;11.38;5.13;;;7.70;99.90;;;6.76;100.00;96657.78;4966434;28;20084;-72
2022/11/19 00:53:52;;;;;;;12.43;5.85;;;7.70;99.90;;;6.78;100.00;96655.97;4986922;28;20042;-73
2022/11/19 00:56:23;;;;;;;9.52;5.15;;;7.80;99.90;;;6.96;100.00;96653.53;4986282;28;20055;-72
2022/11/19 00:58:50;;;;;;;10.55;5.22;;;7.70;99.90;;;6.93;100.00;96651.91;4984045;28;20054;-72
2022/11/19 01:01:21;;;;;;;10.00;5.72;;;7.70;99.90;;;6.80;100.00;96655.94;4986414;28;20048;-71
2022/11/19 01:03:48;;;;;;;8.05;5.15;;;7.70;99.90;;;6.80;100.00;96664.50;4967824;28;20065;-70
2022/11/19 01:06:19;;;;;;;6.97;4.60;;;7.70;99.90;;;6.81;100.00;96661.00;4985006;28;20054;-72
2022/11/19 01:08:48;;;;;;;9.77;4.47;;;7.70;99.90;;;6.80;100.00;96663.66;4983611;28;20046;-73
2022/11/19 01:11:28;;;;;;;10.27;4.68;;;7.70;99.90;;;6.70;100.00;96669.22;4985286;28;20050;-72
2022/11/19 01:13:55;;;;;;;11.32;5.47;;;7.70;99.90;;;6.65;100.00;96670.28;4968567;28;20057;-72
2022/11/19 01:16:25;;;;;;;14.57;6.35;;;7.70;99.90;;;6.62;100.00;96670.44;4985705;28;20473;-70
2022/11/19 01:18:53;;;;;;;15.07;5.85;;;7.70;99.90;;;6.57;100.00;96673.19;4985641;28;20049;-72
2022/11/19 01:21:25;;;;;;;9.73;5.43;;;7.70;99.90;;;6.67;100.00;96663.31;4985862;28;20050;-71
2022/11/19 01:23:52;;;;;;;9.07;6.28;;;7.70;99.90;;;6.68;100.00;96665.00;4965503;28;20129;-71
2022/11/19 01:26:20;;;;;;;9.48;6.13;;;7.70;99.90;;;6.79;100.00;96674.88;4985518;28;20061;-73
2022/11/19 01:28:47;;;;;;;10.80;6.30;;;7.80;99.90;;;6.90;100.00;96670.94;4968083;28;20183;-72
2022/11/19 01:31:19;;;;;;;9.95;6.55;;;7.80;99.90;;;6.83;100.00;96681.59;4984508;28;20503;-71
2022/11/19 01:33:47;;;;;;;12.63;7.78;;;7.80;99.90;;;6.75;100.00;96669.03;4983653;28;20072;-72
2022/11/19 01:36:23;;;;;;;10.73;6.80;;;7.90;99.90;;;6.95;100.00;96670.72;4984061;28;20598;-71
2022/11/19 01:38:51;;;;;;;11.93;6.90;;;7.90;99.90;;;6.85;100.00;96665.13;4982332;28;20157;-72
2022/11/19 01:41:30;;;;;;;14.43;6.88;;;7.90;99.90;;;7.04;100.00;96665.19;4981690;28;20051;-72
2022/11/19 01:44:06;;;;;;;10.60;6.10;;;7.80;99.90;;;6.87;100.00;96667.66;4967985;28;20140;-72
2022/11/19 01:46:37;;;;;;;10.18;6.75;;;7.70;99.90;;;6.88;100.00;96670.16;4982729;28;20496;-70
2022/11/19 01:49:11;;;;;;;7.80;5.75;;;7.70;99.90;;;6.96;100.00;96666.44;4982422;28;20058;-72
2022/11/19 01:51:51;;;;;;;11.05;6.72;;;7.60;99.90;;;6.76;100.00;96675.00;4982004;28;20054;-72
2022/11/19 01:54:41;;;;;;;11.00;7.00;;;7.70;99.90;;;6.82;100.00;96669.56;4983651;28;20046;-72
2022/11/19 01:57:14;;;;;;;13.35;7.68;;;7.70;99.90;;;6.76;100.00;96672.44;4967184;28;20061;-72
2022/11/19 01:59:42;;;;;;;14.90;7.82;;;7.60;99.90;;;6.72;100.00;96676.03;4966074;28;20050;-71
2022/11/19 02:02:10;;;;;;;13.73;9.20;;;7.70;99.90;;;6.76;100.00;96673.25;4965785;28;20157;-72
2022/11/19 02:04:38;;;;;;;15.90;9.52;;;7.70;99.90;;;6.58;100.00;96677.44;4984331;28;20054;-71
2022/11/19 02:07:08;;;;;;;15.77;9.38;;;7.70;99.90;;;6.65;100.00;96671.13;4980372;28;20068;-72
2022/11/19 02:09:36;;;;;;;14.50;8.48;;;7.70;99.90;;;6.61;100.00;96674.72;4967455;28;20058;-71
2022/11/19 02:12:38;;;;;;;14.18;8.13;;;7.60;99.90;;;6.61;100.00;96671.31;4965502;28;20061;-73
2022/11/19 02:15:22;;;;;;;15.50;9.07;;;7.60;99.90;;;6.64;100.00;96676.34;4966569;28;20772;-72
2022/11/19 02:18:19;;;;;;;14.60;8.70;;;7.60;99.90;;;6.48;100.00;96674.41;4979846;28;20050;-72
2022/11/19 02:21:37;;;;;;;15.15;9.20;;;7.50;99.90;;;6.48;100.00;96673.56;4981490;28;20057;-72
2022/11/19 02:24:54;;;;;;;14.35;8.73;;;7.40;99.90;;;6.39;100.00;96676.53;4921407;29;20059;-72
2022/11/19 02:27:54;;;;;;;19.00;10.23;;;7.40;99.90;;;6.38;100.00;96670.50;4981432;28;20073;-72
2022/11/19 02:30:21;;;;;;;18.50;9.38;;;7.30;99.90;;;6.42;100.00;96676.38;4981083;28;20047;-72
2022/11/19 02:33:11;;;;;;;24.85;12.05;;;7.30;99.90;;;6.41;100.00;96687.56;4969451;28;20084;-72
2022/11/19 02:36:22;;;;;;;14.88;9.63;;;7.40;99.90;;;6.39;100.00;96674.78;4975640;28;20050;-72
2022/11/19 02:39:03;;;;;;;19.70;10.25;;;7.40;99.90;;;6.43;100.00;96671.19;4965442;28;20663;-70
2022/11/19 02:41:45;;;;;;;16.17;10.32;;;7.40;99.90;;;6.60;100.00;96670.47;4977312;28;20148;-72
2022/11/19 02:47:47;;;;;;;17.08;10.32;;;7.40;99.90;;;6.65;100.00;96670.28;4983820;28;20050;-73
2022/11/19 02:50:25;;;;;;;19.02;10.73;;;7.40;99.90;;;6.51;100.00;96670.03;4966981;28;20049;-71
2022/11/19 02:52:53;;;;;;;16.02;9.57;;;7.40;99.90;;;6.62;100.00;96657.53;4983287;28;20130;-72
2022/11/19 02:55:22;;;;;;;17.85;10.63;;;7.30;99.90;;;6.65;100.00;96652.22;4985580;28;20088;-71
2022/11/19 02:58:10;;;;;;;17.70;9.35;;;7.30;99.90;;;6.52;100.00;96667.34;4985894;28;20460;-72
2022/11/19 03:06:25;;;;;;;14.02;7.90;;;7.20;99.90;;;6.40;100.00;96678.19;4985255;28;20077;-72
2022/11/19 03:08:52;;;;;;;10.50;6.85;;;7.20;99.90;;;6.51;100.00;96673.44;4983639;28;20054;-72
2022/11/19 03:11:28;;;;;;;13.85;7.55;;;7.20;99.90;;;6.62;100.00;96675.59;4979109;28;20488;-71
2022/11/19 03:17:20;;;;;;;14.93;9.98;;;7.20;99.90;;;6.44;100.00;96683.16;4984339;28;20068;-72
2022/11/19 03:20:47;;;;;;;13.23;8.70;;;7.30;99.90;;;6.45;100.00;96676.25;4965108;28;20046;-73
2022/11/19 03:23:40;;;;;;;13.85;7.60;;;7.20;99.90;;;6.52;100.00;96677.69;4982000;28;20129;-72
2022/11/19 03:26:23;;;;;;;11.07;6.57;;;7.30;99.90;;;6.60;100.00;96679.97;4982536;28;20046;-73
2022/11/19 03:28:52;;;;;;;13.15;6.88;;;7.30;99.90;;;6.50;100.00;96689.81;4984004;28;20050;-72
2022/11/19 03:31:21;;;;;;;12.70;6.95;;;7.30;99.90;;;6.62;100.00;96681.56;4968067;28;20376;-71
2022/11/19 03:33:51;;;;;;;13.65;6.78;;;7.30;99.90;;;6.54;100.00;96680.19;4966915;28;20073;-73
2022/11/19 03:36:32;;;;;;;11.90;6.50;;;7.30;99.90;;;6.66;100.00;96677.97;4980406;28;20054;-73
2022/11/19 03:39:04;;;;;;;13.70;5.80;;;7.30;99.90;;;6.77;100.00;96681.81;4981063;28;20046;-72
2022/11/19 03:41:35;;;;;;;15.23;7.97;;;7.30;99.90;;;6.53;100.00;96675.97;4985117;28;20058;-72
2022/11/19 03:44:28;;;;;;;12.73;6.85;;;7.30;99.90;;;6.62;100.00;96680.75;4981437;28;20058;-72
2022/11/19 03:47:02;;;;;;;12.82;6.03;;;7.40;99.90;;;6.54;100.00;96683.59;4976283;28;20046;-73
2022/11/19 03:49:36;;;;;;;13.60;6.25;;;7.40;99.90;;;6.68;100.00;96686.47;4980234;28;20677;-72
2022/11/19 03:52:19;;;;;;;11.73;6.60;;;7.40;99.90;;;6.69;100.00;96680.41;4981298;28;20054;-72
2022/11/19 03:54:46;;;;;;;;;;;7.40;99.90;;;6.58;100.00;96692.06;4982510;28;20042;-73
2022/11/19 03:57:18;;;;;;;10.75;6.78;;;7.40;99.90;;;6.70;100.00;96686.41;4985896;28;19921;-72
2022/11/19 03:59:46;;;;;;;11.20;6.63;;;7.40;99.90;;;6.67;100.00;96683.97;4981040;28;20507;-71
2022/11/19 04:02:14;;;;;;;9.80;6.15;;;7.40;99.90;;;6.70;100.00;96684.69;4967006;28;20956;-73
2022/11/19 04:04:41;;;;;;;10.80;6.53;;;7.40;99.90;;;6.53;100.00;96686.28;4981233;28;20058;-73
2022/11/19 04:07:19;;;;;;;13.35;6.22;;;7.40;99.90;;;6.58;100.00;96686.91;4985116;28;20329;-73
2022/11/19 04:09:46;;;;;;;9.02;5.90;;;7.30;99.90;;;6.64;100.00;96687.50;4984390;28;20050;-74
2022/11/19 04:12:20;;;;;;;11.95;6.68;;;7.30;99.90;;;6.63;100.00;96688.38;4949921;28;20054;-74
2022/11/19 04:14:49;;;;;;;10.32;4.97;;;7.30;99.90;;;6.66;100.00;96685.69;4984583;28;20042;-74
2022/11/19 04:17:17;;;;;;;10.73;5.85;;;7.30;99.90;;;6.65;100.00;96690.91;4967416;28;20054;-73
2022/11/19 04:19:45;;;;;;;8.13;5.75;;;7.30;99.90;;;6.49;100.00;96691.53;4983287;28;20389;-72
2022/11/19 04:22:12;;;;;;;11.65;6.57;;;7.30;99.90;;;6.47;100.00;96689.91;4983327;28;20052;-72
2022/11/19 04:24:38;;;;;;;11.85;6.00;;;7.20;99.90;;;6.42;100.00;96702.16;4985077;28;20072;-74
2022/11/19 04:27:05;;;;;;;8.98;5.40;;;7.10;99.90;;;6.58;100.00;96689.50;4966439;28;20054;-73
2022/11/19 04:29:32;;;;;;;11.48;5.55;;;7.20;99.90;;;6.54;100.00;96695.66;4982933;28;20046;-73
2022/11/19 04:31:59;;;;;;;9.80;6.60;;;7.20;99.90;;;6.55;100.00;96685.31;4982983;28;20447;-73
2022/11/19 04:34:26;;;;;;;9.68;6.75;;;7.20;99.90;;;6.49;100.00;96701.00;4966688;28;20098;-73
2022/11/19 04:36:53;;;;;;;14.07;6.88;;;7.20;99.90;;;6.58;100.00;96697.22;4982824;28;20053;-73
2022/11/19 04:39:20;;;;;;;9.52;6.18;;;7.20;99.90;;;6.54;100.00;96693.91;4982410;28;20108;-73
2022/11/19 04:41:47;;;;;;;9.88;6.15;;;7.20;99.90;;;6.52;100.00;96711.19;4982046;28;20046;-72
2022/11/19 04:44:14;;;;;;;9.75;6.35;;;7.20;99.90;;;6.48;100.00;96705.34;4984574;28;20046;-72
2022/11/19 04:46:41;;;;;;;9.27;6.72;;;7.20;99.90;;;6.51;100.00;96706.94;4980228;28;20473;-73
2022/11/19 04:49:08;;;;;;;11.55;5.60;;;7.20;99.90;;;6.55;100.00;96702.53;4986321;28;20062;-71
2022/11/19 04:51:35;;;;;;;11.82;7.30;;;7.20;99.90;;;6.37;100.00;96714.41;4986874;28;20058;-73
2022/11/19 04:54:02;;;;;;;15.80;7.32;;;7.20;99.90;;;6.42;100.00;96708.16;4984028;28;20146;-73
2022/11/19 04:56:29;;;;;;;13.15;7.45;;;7.30;99.90;;;6.37;100.00;96714.41;4970611;28;20177;-73
2022/11/19 04:58:56;;;;;;;15.50;7.53;;;7.30;99.90;;;6.41;100.00;96715.94;4970410;28;20456;-71
2022/11/19 05:01:23;;;;;;;16.85;9.07;;;7.30;99.90;;;6.42;100.00;96707.31;4986681;28;20066;-73
2022/11/19 05:03:50;;;;;;;14.20;7.97;;;7.30;99.90;;;6.49;100.00;96701.00;4969243;28;20042;-72
2022/11/19 05:06:17;;;;;;;13.45;8.05;;;7.30;99.90;;;6.49;100.00;96707.00;4969653;28;20050;-72
2022/11/19 05:08:44;;;;;;;13.70;7.03;;;7.30;99.90;;;6.52;100.00;96700.03;4986662;28;20085;-72
2022/11/19 05:11:11;;;;;;;17.00;9.60;;;7.20;99.90;;;6.52;100.00;96708.63;4985174;28;20062;-72
2022/11/19 05:13:38;;;;;;;12.13;8.77;;;7.30;99.90;;;6.59;100.00;96707.50;4988616;28;20061;-73
2022/11/19 05:16:05;;;;;;;11.82;8.32;;;7.30;99.90;;;6.52;100.00;96702.63;4985470;28;20046;-71
2022/11/19 05:18:32;;;;;;;14.23;8.23;;;7.30;99.90;;;6.56;100.00;96706.75;4969452;28;20050;-72
2022/11/19 05:20:59;;;;;;;12.65;7.65;;;7.30;99.90;;;6.64;100.00;96700.41;4966528;28;20123;-72
2022/11/19 05:23:26;;;;;;;13.73;8.13;;;7.30;99.90;;;6.57;100.00;96696.41;4983354;28;20771;-72
2022/11/19 05:25:53;;;;;;;11.25;7.65;;;7.30;99.90;;;6.53;100.00;96697.41;4987761;28;20046;-72
2022/11/19 05:28:20;;;;;;;9.95;7.13;;;7.30;99.90;;;6.57;100.00;96692.97;4985803;28;20057;-73
2022/11/19 05:31:04;;;;;;;;;;;7.20;99.90;;;6.62;100.00;96701.38;4987561;28;20046;-73
2022/11/19 05:33:31;;;;;;;15.20;6.90;;;7.20;99.90;;;6.59;100.00;96707.50;4987086;28;20690;-73
2022/11/19 05:36:01;;;;;;;11.77;7.40;;;7.20;99.90;;;6.42;100.00;96705.56;4984580;28;20042;-73
2022/11/19 05:38:28;;;;;;;15.93;7.35;;;7.20;99.90;;;6.47;100.00;96705.38;4987546;28;20053;-73
2022/11/19 05:40:55;;;;;;;13.10;7.32;;;7.20;99.90;;;6.44;100.00;96708.94;4984519;28;20038;-72
2022/11/19 05:43:22;;;;;;;13.73;7.20;;;7.20;99.90;;;6.38;100.00;96706.59;4984723;28;20574;-73
2022/11/19 05:45:49;;;;;;;12.95;6.95;;;7.10;99.90;;;6.47;100.00;96700.22;4968145;28;20129;-71
2022/11/19 05:48:16;;;;;;;15.25;8.60;;;7.20;99.90;;;6.31;100.00;96710.31;4985755;28;20052;-73
2022/11/19 05:50:43;;;;;;;13.13;7.65;;;7.20;99.90;;;6.41;100.00;96703.03;4986111;28;20065;-72
2022/11/19 05:53:10;;;;;;;18.08;10.23;;;7.20;99.90;;;6.30;100.00;96716.38;4969697;28;20054;-72
2022/11/19 05:55:37;;;;;;;15.20;8.30;;;7.20;99.90;;;6.40;100.00;96707.38;4982682;28;20050;-73
2022/11/19 05:58:04;;;;;;;16.65;7.85;;;7.20;99.90;;;6.28;100.00;96711.28;4985972;28;20606;-72
2022/11/19 06:00:31;;;;;;;14.77;7.18;;;7.20;99.90;;;6.46;100.00;96712.28;4984879;28;20050;-73
2022/11/19 06:02:57;;;;;;;11.13;6.05;;;7.10;99.90;;;6.50;100.00;96710.44;4982490;28;20052;-71
2022/11/19 06:05:24;;;;;;;10.95;6.35;;;7.10;99.90;;;6.46;100.00;96707.13;4984989;28;20527;-72
2022/11/19 06:07:51;;;;;;;10.80;6.70;;;7.10;99.90;;;6.31;100.00;96710.31;4982329;28;20046;-71
2022/11/19 06:10:18;;;;;;;13.75;5.80;;;7.10;99.90;;;6.46;100.00;96708.88;4986466;28;20786;-72
2022/11/19 06:12:45;;;;;;;11.93;6.70;;;7.10;99.90;;;6.49;100.00;96708.75;4986179;28;20161;-73
2022/11/19 06:15:13;;;;;;;11.90;5.97;;;7.10;99.90;;;6.37;100.00;96709.25;4984623;28;20061;-72
2022/11/19 06:17:41;;;;;;;7.72;4.22;;;7.10;99.90;;;6.44;100.00;96705.53;4971285;28;20046;-71
2022/11/19 06:20:09;;;;;;;8.18;5.40;;;7.10;99.90;;;6.37;100.00;96707.50;4965847;28;20042;-73
2022/11/19 06:22:38;;;;;;;13.52;5.28;;;7.10;99.90;;;6.40;100.00;96714.28;4983734;28;20050;-72
2022/11/19 06:25:06;;;;;;;12.23;5.90;;;7.10;99.90;;;6.37;100.00;96711.81;4984819;28;20053;-72
2022/11/19 06:27:33;;;;;;;12.90;5.03;;;7.00;99.90;;;6.29;100.00;96712.09;4968594;28;20154;-72
2022/11/19 06:30:01;;;;;;;9.63;5.03;;;7.00;99.90;;;6.30;100.00;96716.38;4969499;28;20057;-72
2022/11/19 06:32:28;;;;;;;8.40;4.53;;;7.10;99.90;;;6.25;100.00;96711.41;4970963;28;20408;-72
2022/11/19 06:34:55;;;;;;;6.35;3.85;;;7.00;99.90;;;6.16;100.00;96716.91;4989085;28;20058;-70
2022/11/19 06:37:22;;;;;;;8.90;4.10;;;7.10;99.90;;;6.31;100.00;96720.63;4983498;28;20080;-72
2022/11/19 06:39:49;;;;;;;9.32;3.88;;;7.00;99.90;;;6.21;100.00;96725.31;4967153;28;20046;-72
2022/11/19 06:45:08;;;;;;;8.38;3.42;;;7.00;99.90;;;6.21;100.00;96727.06;4987158;28;20094;-71
2022/11/19 06:47:36;;;;;;;9.82;3.10;;;7.00;99.90;;;6.11;100.00;96736.84;4983718;28;20076;-71
2022/11/19 06:50:06;;;;;;;5.97;2.92;;;7.00;99.90;;;6.34;100.00;96729.97;4969996;28;20063;-70
2022/11/19 06:52:33;;;;;;;5.57;2.85;;;7.00;99.90;;;6.23;100.00;96731.25;4970538;28;20908;-71
2022/11/19 06:55:00;;;;;;;4.82;2.70;;;7.00;99.90;;;6.20;100.00;96735.66;4987029;28;20504;-70
2022/11/19 06:57:27;;;;;;;6.82;2.67;;;6.90;99.90;;;6.27;100.00;96730.22;4987737;28;20423;-71
2022/11/19 06:59:54;;;;;;;8.60;3.00;;;6.90;99.90;;;6.16;100.00;96741.81;4987477;28;20047;-70
2022/11/19 07:02:21;;;;;;;9.77;3.80;;;7.00;99.90;;;6.02;100.00;96744.94;4986796;28;20060;-71
2022/11/19 07:04:48;;;;;;;9.93;2.95;;;7.00;99.90;;;6.10;100.00;96742.09;4987169;28;20050;-70
2022/11/19 07:07:15;;;;;;;14.13;2.78;;;6.90;99.90;;;6.19;100.00;96739.97;4985495;28;20080;-71
2022/11/19 07:09:42;;;;;;;11.20;3.28;;;6.90;99.90;;;6.04;100.00;96746.56;4988760;28;20046;-72
2022/11/19 07:12:09;;;;;;;7.60;2.65;;;6.90;99.90;;;6.13;100.00;96750.50;4988272;28;20069;-70
2022/11/19 07:14:36;;;;;;;10.32;2.63;;;6.90;99.90;;;6.08;100.00;96747.28;4983348;28;20514;-71
2022/11/19 07:17:04;;;;;;;8.20;3.08;;;6.90;99.90;;;6.05;100.00;96753.41;4987878;28;20046;-71
2022/11/19 07:19:31;;;;;;;10.23;3.40;;;6.90;99.90;;;5.91;100.00;96750.47;4986179;28;20065;-72
2022/11/19 07:21:58;;;;;;;11.85;3.08;;;6.90;99.90;;;5.95;100.00;96751.22;4968813;28;20690;-72
2022/11/19 07:24:25;;;;;;;8.82;3.45;;;6.80;99.90;;;5.93;100.00;96753.84;4985746;28;20568;-72
2022/11/19 07:26:54;;;;;;;14.55;4.10;;;6.80;99.90;;;5.86;100.00;96749.78;4969194;28;20042;-72
2022/11/19 07:29:21;;;;;;;9.73;2.90;;;6.70;99.90;;;5.97;100.00;96754.56;4971185;28;20050;-75
2022/11/19 07:31:49;;;;;;;8.90;3.00;;;6.70;99.90;;;6.01;100.00;96756.16;4970997;28;20061;-72
2022/11/19 07:34:17;;;;;;;10.77;3.28;;;6.70;99.90;;;5.92;100.00;96756.47;4968410;28;20050;-74
2022/11/19 07:36:44;;;;;;;10.52;3.40;;;6.70;99.90;;;5.80;100.00;96755.19;4984450;28;20055;-71
2022/11/19 07:39:12;;;;;;;9.57;2.88;;;6.60;99.90;;;5.83;100.00;96762.78;4984648;28;20099;-73
2022/11/19 07:44:24;;;;;;;11.55;3.75;;;6.60;99.90;;;5.87;100.00;96764.34;4987759;28;20058;-74
2022/11/19 07:46:51;;;;;;;9.25;3.15;;;6.60;99.90;;;5.96;100.00;96781.25;4985798;28;20061;-74
2022/11/19 07:49:19;;;;;;;7.07;2.92;;;6.60;99.90;;;5.82;100.00;96784.28;4985975;28;20066;-73
2022/11/19 07:51:47;;;;;;;7.70;3.40;;;6.60;99.90;;;5.79;100.00;96777.53;4964539;28;20114;-70
2022/11/19 07:54:15;;;;;;;9.10;3.92;;;6.60;99.90;;;5.74;100.00;96788.88;4982107;28;20250;-73
2022/11/19 07:56:42;;;;;;;8.85;3.13;;;6.70;99.90;;;5.84;100.00;96785.09;4964526;28;20065;-73
2022/11/19 07:59:10;;;;;;;11.45;3.88;;;6.70;99.90;;;5.93;100.00;96791.59;4985628;28;20050;-73
2022/11/19 08:01:37;;;;;;;13.15;5.25;;;6.70;99.90;;;6.04;100.00;96794.66;4982496;28;20049;-73
2022/11/19 08:04:04;;;;;;;15.88;4.32;;;6.70;99.90;;;6.02;100.00;96796.44;4981048;28;20054;-72
2022/11/19 08:06:33;;;;;;;11.75;3.90;;;6.70;99.90;;;5.86;100.00;96794.44;4982056;28;20050;-73
2022/11/19 08:09:02;;;;;;;9.10;4.18;;;6.70;99.90;;;5.85;100.00;96794.47;4980054;28;20060;-73
2022/11/19 08:11:30;;;;;;;9.45;4.38;;;6.80;99.90;;;5.95;100.00;96795.84;4979940;28;20560;-74
2022/11/19 08:14:01;;;;;;;9.40;3.95;;;6.80;99.90;;;5.81;100.00;96796.31;4968059;28;20539;-73
2022/11/19 08:19:17;;;;;;;9.82;4.78;;;6.80;99.90;;;5.88;100.00;96789.19;4980687;28;20046;-73
2022/11/19 08:21:46;;;;;;;10.52;4.82;;;6.80;99.90;;;5.97;100.00;96796.63;4980391;28;20109;-73
2022/11/19 08:24:16;;;;;;;10.35;5.35;;;6.80;99.90;;;5.95;100.00;96802.72;4985058;28;20046;-73
2022/11/19 08:26:44;;;;;;;13.57;5.35;;;6.80;99.90;;;6.07;100.00;96797.16;4988863;28;20531;-73
2022/11/19 08:29:13;;;;;;;11.85;5.20;;;6.70;99.90;;;6.01;100.00;96798.19;4968464;28;20652;-74
2022/11/19 08:31:45;;;;;;;12.45;6.03;;;6.70;99.90;;;5.98;100.00;96790.59;4987597;28;20111;-73
2022/11/19 08:34:13;;;;;;;11.93;4.65;;;6.80;99.90;;;5.97;100.00;96796.63;4981744;28;20124;-73
2022/11/19 08:36:40;;;;;;;12.70;4.85;;;6.70;99.90;;;6.11;100.00;96798.69;4987324;28;20046;-73
2022/11/19 08:39:07;;;;;;;9.45;4.78;;;6.70;99.90;;;6.03;100.00;96801.56;4984125;28;20073;-72
2022/11/19 08:44:20;;;;;;;11.80;5.75;;;6.70;99.90;;;6.02;100.00;96810.19;4986038;28;20050;-72
2022/11/19 08:46:49;;;;;;;13.57;6.78;;;6.70;99.90;;;5.83;100.00;96815.13;4968088;28;20492;-72
2022/11/19 08:49:16;;;;;;;10.63;5.38;;;6.80;99.90;;;5.84;100.00;96809.09;4983743;28;20053;-73
2022/11/19 08:51:43;;;;;;;13.32;6.53;;;6.80;99.90;;;5.87;100.00;96816.69;4968916;28;20137;-73
2022/11/19 08:54:11;;;;;;;11.27;6.00;;;6.80;99.90;;;6.04;100.00;96820.41;4985027;28;20050;-73
2022/11/19 08:56:38;;;;;;;14.15;6.10;;;6.80;99.90;;;6.19;100.00;96824.19;4984599;28;20046;-72
2022/11/19 08:59:05;;;;;;;13.45;7.97;;;6.80;99.90;;;6.13;100.00;96824.41;4986389;28;20047;-70
2022/11/19 09:01:32;;;;;;;13.15;7.60;;;6.80;99.90;;;6.22;100.00;96827.47;4986037;28;20532;-72
2022/11/19 09:03:59;;;;;;;15.55;8.27;;;6.80;99.90;;;6.09;100.00;96834.00;4985757;28;20156;-71
2022/11/19 09:06:26;;;;;;;15.43;9.55;;;6.80;99.90;;;6.05;100.00;96830.69;4992657;28;20054;-73
2022/11/19 09:08:53;;;;;;;13.20;9.40;;;6.80;99.90;;;6.10;100.00;96824.53;4988193;28;20618;-72
2022/11/19 09:11:21;;;;;;;16.38;10.07;;;6.90;99.90;;;6.15;100.00;96823.44;4993775;28;20049;-73
2022/11/19 09:13:48;;;;;;;21.30;10.95;;;6.90;99.90;;;6.24;100.00;96824.84;4973362;28;20209;-73
2022/11/19 09:16:15;;;;;;;17.63;11.07;;;6.90;99.90;;;6.15;100.00;96828.59;4989302;28;20049;-74
2022/11/19 09:18:42;;;;;;;21.27;12.75;;;6.90;99.90;;;6.20;100.00;96829.28;4989689;28;20046;-73
2022/11/19 09:21:11;;;;;;;16.83;12.27;;;6.90;99.90;;;6.13;100.00;96826.97;4989406;28;20657;-73
2022/11/19 09:23:40;;;;;;;18.20;11.48;;;7.00;99.90;;;6.27;100.00;96837.59;4986932;28;20065;-73
2022/11/19 09:26:17;;;;;;;19.77;14.27;;;7.00;99.90;;;6.32;100.00;96837.44;4988398;28;20088;-73
2022/11/19 09:28:45;;;;;;;20.70;11.10;;;7.00;99.90;;;6.20;100.00;96846.47;4989963;28;20050;-73
2022/11/19 09:31:17;;;;;;;24.75;12.50;;;7.00;99.90;;;6.14;100.00;96849.28;4988095;28;20053;-73
2022/11/19 09:33:50;;;;;;;20.20;11.73;;;7.00;99.90;;;6.17;100.00;96844.00;4970473;28;20046;-73
2022/11/19 09:36:18;;;;;;;;;;;7.00;99.90;;;6.24;100.00;96851.44;4989051;28;20069;-72
2022/11/19 09:38:47;;;;;;;24.77;13.30;;;7.00;99.90;;;6.15;100.00;96854.38;4987950;28;20570;-73
2022/11/19 09:41:23;;;;;;;28.00;14.95;;;7.00;99.90;;;6.20;100.00;96849.03;4971173;28;20420;-73
2022/11/19 09:44:30;;;;;;;20.48;13.52;;;7.10;99.90;;;6.18;100.00;96851.69;4988731;28;20058;-73
2022/11/19 09:47:49;;;;;;;23.77;13.23;;;7.10;99.90;;;6.27;100.00;96847.91;4990423;28;20078;-72
2022/11/19 09:50:25;;;;;;;20.33;12.60;;;7.20;99.90;;;6.40;100.00;96850.88;4955724;28;20042;-72
2022/11/19 09:53:00;;;;;;;19.55;12.02;;;7.20;99.90;;;6.47;100.00;96862.66;4966591;28;20121;-72
2022/11/19 09:55:37;;;;;;;18.95;12.77;;;7.20;99.90;;;6.36;100.00;96864.78;4988883;28;20149;-72
2022/11/19 09:58:19;;;;;;;25.95;15.13;;;7.30;99.90;;;6.57;100.00;96863.13;4985544;28;20050;-73
2022/11/19 10:00:46;;;;;;;20.17;14.32;;;7.40;99.90;;;6.74;100.00;96860.75;4971706;28;20070;-73
2022/11/19 10:03:17;;;;;;;20.17;13.60;;;7.40;99.90;;;6.45;100.00;96867.88;4987122;28;20050;-73
2022/11/19 10:06:14;;;;;;;20.90;14.32;;;7.40;99.90;;;6.46;100.00;96860.97;4988750;28;20050;-73
2022/11/19 10:08:47;;;;;;;24.02;12.75;;;7.50;99.90;;;6.68;100.00;96861.84;4987778;28;20057;-73
2022/11/19 10:11:31;;;;;;;18.75;12.95;;;7.50;99.90;;;6.66;100.00;96857.63;4987234;28;20129;-73
2022/11/19 10:14:28;;;;;;;18.85;11.80;;;7.50;99.90;;;6.57;100.00;96856.25;4987677;28;20138;-73
2022/11/19 10:17:42;;;;;;;21.80;13.93;;;7.60;99.90;;;6.70;100.00;96867.78;4988735;28;20054;-73
2022/11/19 10:20:46;;;;;;;21.90;14.95;;;7.70;99.90;;;6.73;100.00;96858.22;4987868;28;20061;-73
2022/11/19 10:23:18;;;;;;;19.80;13.45;;;7.80;99.90;;;6.77;100.00;96850.31;4989391;28;20054;-73
2022/11/19 10:25:48;;;;;;;17.63;11.80;;;7.80;99.90;;;6.93;100.00;96847.97;4984199;28;20065;-72
2022/11/19 10:28:24;;;;;;;23.75;13.25;;;7.90;99.90;;;6.69;100.00;96849.78;4988620;28;20508;-73
2022/11/19 10:30:57;;;;;;;14.38;9.63;;;7.90;99.90;;;6.76;100.00;96860.72;4987447;28;20058;-73
2022/11/19 10:33:44;;;;;;;;;;;7.90;99.90;;;6.78;100.00;96852.00;4982459;28;20065;-72
2022/11/19 10:36:22;;;;;;;13.57;9.60;;;7.80;99.90;;;6.63;100.00;96856.00;4965133;28;20751;-73
2022/11/19 10:39:06;;;;;;;19.95;11.80;;;7.70;99.90;;;6.65;100.00;96851.63;4984559;28;20046;-72
2022/11/19 10:41:58;;;;;;;17.48;10.93;;;7.80;99.90;;;6.90;100.00;96846.34;4986952;28;20065;-73
2022/11/19 10:44:49;;;;;;;16.38;10.77;;;7.80;99.90;;;6.84;100.00;96858.66;4972650;28;20080;-73
2022/11/19 10:47:28;;;;;;;14.48;10.05;;;7.80;99.90;;;6.92;100.00;96851.47;4987387;28;20050;-73
2022/11/19 10:49:55;;;;;;;15.02;11.20;;;7.70;99.90;;;6.76;100.00;96853.81;4984565;28;20046;-72
2022/11/19 10:52:28;;;;;;;20.30;13.13;;;7.70;99.90;;;6.73;100.00;96850.50;4985802;28;20050;-73
2022/11/19 10:55:11;;;;;;;17.25;11.20;;;7.70;99.90;;;6.72;100.00;96856.56;4986770;28;20050;-72
2022/11/19 10:57:39;;;;;;;11.48;8.18;;;7.80;99.90;;;6.72;100.00;96859.13;4979439;28;20072;-71
2022/11/19 11:00:07;;;;;;;12.15;8.63;;;7.70;99.90;;;6.74;100.00;96859.91;4989441;28;20125;-73
2022/11/19 11:02:53;;;;;;;16.02;10.68;;;7.80;99.90;;;6.85;100.00;96850.88;4984169;28;20504;-73
2022/11/19 11:05:20;;;;;;;15.88;9.95;;;7.80;99.90;;;6.74;100.00;96854.75;4977353;28;20157;-71
2022/11/19 11:07:56;;;;;;;12.15;9.07;;;7.80;99.90;;;6.79;100.00;96851.09;4981872;28;20373;-73